Schneifelwetter: Wetterstation Hallschlag, 537 m . NN
Wetterdaten: Montag, 26.11.2012
Datum Zeit Temp. A. Feuchte A. Luftdruck Regen Wind Richtung Richtung Sonnenschein T Regen Taupunkt Windchill
26.11.2012 00:09 2,6 C 94 % 1011 hPa 0,0 l/m 13,5 km/h (3 Bft) S-SW22.5 205 0 min 0 min 1,7 C -3,0 C
26.11.2012 00:24 2,3 C 94 % 1011 hPa 0,0 l/m 9,1 km/h (2 Bft) S22.5 180 0 min 0 min 1,4 C -0,2 C
26.11.2012 00:39 1,9 C 94 % 1011 hPa 0,0 l/m 11,2 km/h (2 Bft) S-SW45 200 0 min 0 min 1,0 C -2,3 C
26.11.2012 00:54 1,5 C 94 % 1010 hPa 0,0 l/m 1,0 km/h (0 Bft) W-SW 240 0 min 0 min 0,6 C 1,5 C
26.11.2012 01:09 1,1 C 94 % 1010 hPa 0,0 l/m 0,0 km/h (0 Bft) W-SW 240 0 min 0 min 0,2 C 1,1 C
26.11.2012 01:24 0,6 C 94 % 1010 hPa 0,0 l/m 0,0 km/h (0 Bft) W-SW 240 0 min 0 min -0,3 C 0,6 C
26.11.2012 01:39 0,3 C 95 % 1010 hPa 0,0 l/m 3,2 km/h (1 Bft) W-SW 245 0 min 0 min -0,4 C 0,3 C
26.11.2012 01:54 0,1 C 95 % 1009 hPa 0,0 l/m 0,0 km/h (0 Bft) W-SW 245 0 min 0 min -0,6 C 0,1 C
26.11.2012 02:09 -0,5 C 94 % 1009 hPa 0,0 l/m 0,0 km/h (0 Bft) W-SW 245 0 min 0 min -1,3 C -0,5 C
26.11.2012 02:24 -0,7 C 95 % 1009 hPa 0,0 l/m 0,0 km/h (0 Bft) W-SW 245 0 min 0 min -1,4 C -0,7 C
26.11.2012 02:39 -0,7 C 95 % 1009 hPa 0,0 l/m 4,6 km/h (1 Bft) S 180 0 min 0 min -1,4 C -0,7 C
26.11.2012 02:54 -0,7 C 96 % 1009 hPa 0,0 l/m 0,3 km/h (0 Bft) S 180 0 min 0 min -1,3 C -0,7 C
26.11.2012 03:09 -0,6 C 96 % 1009 hPa 0,0 l/m 0,8 km/h (0 Bft) S-SO 160 0 min 0 min -1,2 C -0,6 C
26.11.2012 03:24 -0,8 C 96 % 1009 hPa 0,0 l/m 5,9 km/h (2 Bft) S-SO 160 0 min 0 min -1,4 C -0,8 C
26.11.2012 03:39 -0,8 C 96 % 1008 hPa 0,0 l/m 0,0 km/h (0 Bft) S-SO 160 0 min 0 min -1,4 C -0,8 C
26.11.2012 03:54 -0,3 C 97 % 1008 hPa 0,0 l/m 12,3 km/h (3 Bft) S-SO22.5 155 0 min 0 min -0,7 C -5,6 C
26.11.2012 04:09 0,4 C 97 % 1008 hPa 0,0 l/m 13,6 km/h (3 Bft) S45 170 0 min 0 min -0,0 C -5,6 C
26.11.2012 04:24 0,8 C 98 % 1008 hPa 0,0 l/m 16,1 km/h (3 Bft) S45 180 0 min 0 min 0,5 C -6,6 C
26.11.2012 04:39 1,2 C 98 % 1008 hPa 0,0 l/m 13,1 km/h (3 Bft) S45 175 0 min 0 min 0,9 C -4,4 C
26.11.2012 04:55 1,7 C 98 % 1008 hPa 0,0 l/m 16,3 km/h (3 Bft) S-SO45 155 0 min 0 min 1,4 C -5,6 C
26.11.2012 05:10 2,1 C 98 % 1008 hPa 0,0 l/m 14,3 km/h (3 Bft) S-SO22.5 165 0 min 0 min 1,8 C -4,0 C
26.11.2012 05:25 2,1 C 98 % 1008 hPa 0,0 l/m 18,3 km/h (3 Bft) S-SO22.5 155 0 min 0 min 1,8 C -6,1 C
26.11.2012 05:40 2,2 C 98 % 1007 hPa 0,0 l/m 16,1 km/h (3 Bft) S22.5 170 0 min 0 min 1,9 C -4,9 C
26.11.2012 05:55 2,5 C 98 % 1007 hPa 0,0 l/m 15,7 km/h (3 Bft) S67.5 180 0 min 0 min 2,2 C -4,3 C
26.11.2012 06:10 2,7 C 98 % 1007 hPa 0,0 l/m 13,1 km/h (3 Bft) S45 180 0 min 0 min 2,4 C -2,6 C
26.11.2012 06:25 2,7 C 98 % 1007 hPa 0,0 l/m 13,0 km/h (3 Bft) S-SO22.5 160 0 min 0 min 2,4 C -2,5 C
26.11.2012 06:40 2,7 C 98 % 1007 hPa 0,0 l/m 12,7 km/h (3 Bft) S-SO22.5 165 0 min 0 min 2,4 C -2,3 C
26.11.2012 06:55 2,8 C 98 % 1007 hPa 0,0 l/m 9,3 km/h (2 Bft) S-SO22.5 150 0 min 0 min 2,5 C 0,2 C
26.11.2012 07:10 2,9 C 98 % 1007 hPa 0,0 l/m 7,2 km/h (2 Bft) S-SW22.5 195 0 min 0 min 2,6 C 2,1 C
26.11.2012 07:25 3,3 C 98 % 1006 hPa 0,0 l/m 12,6 km/h (3 Bft) S-SO22.5 160 0 min 0 min 3,0 C -1,6 C
26.11.2012 07:40 3,5 C 98 % 1006 hPa 0,0 l/m 0,0 km/h (0 Bft) SO 125 0 min 0 min 3,2 C 3,5 C
26.11.2012 08:00 3,6 C 98 % 1006 hPa 0,0 l/m 0,2 km/h (0 Bft) SO 125 0 min 0 min 3,3 C 3,6 C
26.11.2012 08:15 3,7 C 97 % 1006 hPa 0,0 l/m 0,9 km/h (0 Bft) SO22.5 125 0 min 0 min 3,3 C 3,7 C
26.11.2012 08:31 3,9 C 97 % 1006 hPa 0,0 l/m 3,2 km/h (1 Bft) O-SO45 115 0 min 0 min 3,5 C 3,9 C
26.11.2012 08:46 4,1 C 97 % 1005 hPa 0,0 l/m 3,2 km/h (1 Bft) O-SO45 115 0 min 0 min 3,7 C 4,1 C
26.11.2012 09:00 4,5 C 97 % 1005 hPa 0,3 l/m 7,4 km/h (2 Bft) SO22.5 140 0 min 14 min 4,1 C 3,6 C
26.11.2012 09:15 4,6 C 97 % 1005 hPa 0,3 l/m 7,4 km/h (2 Bft) SO22.5 140 0 min 15 min 4,2 C 3,7 C
26.11.2012 09:30 4,7 C 97 % 1005 hPa 0,0 l/m 7,4 km/h (2 Bft) SO22.5 140 0 min 0 min 4,3 C 3,8 C
26.11.2012 09:46 4,8 C 98 % 1005 hPa 0,3 l/m 7,4 km/h (2 Bft) SO22.5 140 0 min 16 min 4,5 C 3,9 C
26.11.2012 10:01 5,2 C 98 % 1005 hPa 0,3 l/m 19,5 km/h (3 Bft) S-SO45 160 0 min 15 min 4,9 C -2,7 C
26.11.2012 10:16 5,4 C 99 % 1005 hPa 0,3 l/m 20,1 km/h (4 Bft) S-SO22.5 165 0 min 15 min 5,3 C -2,7 C
26.11.2012 10:30 5,5 C 99 % 1004 hPa 0,3 l/m 20,1 km/h (4 Bft) S-SO22.5 165 0 min 14 min 5,4 C -2,6 C
26.11.2012 10:45 5,6 C 99 % 1004 hPa 0,0 l/m 20,1 km/h (4 Bft) S-SO22.5 165 0 min 0 min 5,5 C -2,4 C
26.11.2012 11:00 5,8 C 99 % 1004 hPa 0,0 l/m 20,1 km/h (4 Bft) S-SO22.5 165 0 min 0 min 5,7 C -2,2 C
26.11.2012 11:16 5,9 C 99 % 1004 hPa 0,6 l/m 14,3 km/h (3 Bft) S22.5 175 0 min 16 min 5,8 C 0,5 C
26.11.2012 11:31 6,1 C 99 % 1004 hPa 0,3 l/m 19,0 km/h (3 Bft) S45 170 0 min 15 min 6,0 C -1,4 C
26.11.2012 11:46 6,1 C 99 % 1004 hPa 0,0 l/m 19,0 km/h (3 Bft) S45 170 0 min 0 min 6,0 C -1,4 C
26.11.2012 12:00 6,3 C 99 % 1004 hPa 0,3 l/m 19,0 km/h (3 Bft) S45 170 0 min 14 min 6,2 C -1,1 C
26.11.2012 12:15 6,5 C 99 % 1004 hPa 0,0 l/m 19,8 km/h (3 Bft) S45 170 0 min 0 min 6,4 C -1,2 C
26.11.2012 12:30 6,6 C 99 % 1003 hPa 0,0 l/m 17,4 km/h (3 Bft) S45 185 0 min 0 min 6,5 C -0,1 C
26.11.2012 12:46 6,8 C 99 % 1003 hPa 0,0 l/m 17,4 km/h (3 Bft) S45 185 0 min 0 min 6,7 C 0,2 C
26.11.2012 13:01 7,0 C 98 % 1003 hPa 0,0 l/m 17,4 km/h (3 Bft) S45 185 0 min 0 min 6,7 C 0,4 C
26.11.2012 13:15 7,1 C 99 % 1003 hPa 0,0 l/m 17,4 km/h (3 Bft) S45 185 0 min 0 min 7,0 C 0,6 C
26.11.2012 13:30 7,2 C 98 % 1003 hPa 0,0 l/m 16,0 km/h (3 Bft) S-SW45 200 0 min 0 min 6,9 C 1,3 C
26.11.2012 13:45 7,2 C 98 % 1003 hPa 0,0 l/m 16,0 km/h (3 Bft) S-SW45 200 0 min 0 min 6,9 C 1,3 C
26.11.2012 14:00 7,2 C 98 % 1002 hPa 0,0 l/m 16,0 km/h (3 Bft) S-SW45 200 0 min 0 min 6,9 C 1,3 C
26.11.2012 14:16 7,2 C 98 % 1002 hPa 0,0 l/m 16,0 km/h (3 Bft) S-SW45 200 0 min 0 min 6,9 C 1,3 C
26.11.2012 14:31 7,2 C 98 % 1002 hPa 0,0 l/m 16,0 km/h (3 Bft) S-SW45 200 0 min 0 min 6,9 C 1,3 C
26.11.2012 14:45 7,2 C 98 % 1002 hPa 0,0 l/m 15,8 km/h (3 Bft) S-SW45 205 0 min 0 min 6,9 C 1,4 C
26.11.2012 15:00 7,2 C 98 % 1002 hPa 0,0 l/m 20,6 km/h (4 Bft) SW45 215 0 min 0 min 6,9 C -0,5 C
26.11.2012 15:15 7,2 C 98 % 1002 hPa 0,0 l/m 20,6 km/h (4 Bft) SW45 215 0 min 0 min 6,9 C -0,5 C
26.11.2012 15:30 7,2 C 97 % 1002 hPa 0,0 l/m 20,6 km/h (4 Bft) SW45 215 0 min 0 min 6,8 C -0,5 C
26.11.2012 15:46 7,2 C 97 % 1002 hPa 0,0 l/m 20,6 km/h (4 Bft) SW45 215 0 min 0 min 6,8 C -0,5 C
26.11.2012 16:01 7,2 C 97 % 1002 hPa 0,0 l/m 20,6 km/h (4 Bft) SW45 215 0 min 0 min 6,8 C -0,5 C
26.11.2012 16:15 7,2 C 97 % 1002 hPa 0,0 l/m 20,8 km/h (4 Bft) S45 185 0 min 0 min 6,8 C -0,6 C
26.11.2012 16:30 7,0 C 97 % 1002 hPa 0,0 l/m 20,8 km/h (4 Bft) S45 185 0 min 0 min 6,6 C -0,9 C
26.11.2012 16:45 6,8 C 96 % 1002 hPa 0,0 l/m 26,2 km/h (4 Bft) S-SW67.5 205 0 min 0 min 6,2 C -2,9 C
26.11.2012 17:00 6,8 C 96 % 1002 hPa 0,0 l/m 19,0 km/h (3 Bft) S45 190 0 min 0 min 6,2 C -0,5 C
26.11.2012 17:16 6,6 C 96 % 1002 hPa 0,0 l/m 18,8 km/h (3 Bft) S-SW45 205 0 min 0 min 6,0 C -0,6 C
26.11.2012 17:31 6,5 C 96 % 1002 hPa 0,0 l/m 18,1 km/h (3 Bft) S-SW45 200 0 min 0 min 5,9 C -0,5 C
26.11.2012 17:45 6,6 C 96 % 1001 hPa 0,0 l/m 28,2 km/h (4 Bft) SW45 215 0 min 0 min 6,0 C -3,7 C
26.11.2012 18:00 6,6 C 96 % 1001 hPa 0,0 l/m 22,9 km/h (4 Bft) SW45 220 0 min 0 min 6,0 C -2,1 C
26.11.2012 18:15 6,7 C 96 % 1001 hPa 0,0 l/m 20,4 km/h (4 Bft) S67.5 185 0 min 0 min 6,1 C -1,1 C
26.11.2012 18:31 6,7 C 96 % 1001 hPa 0,0 l/m 20,4 km/h (4 Bft) S67.5 185 0 min 0 min 6,1 C -1,1 C
26.11.2012 18:46 6,8 C 97 % 1001 hPa 0,0 l/m 37,6 km/h (5 Bft) S-SW45 210 0 min 0 min 6,4 C -5,4 C
26.11.2012 19:01 6,8 C 97 % 1001 hPa 0,0 l/m 37,6 km/h (5 Bft) S-SW45 210 0 min 0 min 6,4 C -5,4 C
26.11.2012 19:15 6,8 C 97 % 1001 hPa 1,2 l/m 23,3 km/h (4 Bft) W-SW45 250 0 min 14 min 6,4 C -2,0 C
26.11.2012 19:30 6,7 C 97 % 1001 hPa 0,0 l/m 29,3 km/h (5 Bft) W-SW45 245 0 min 0 min 6,3 C -3,8 C
26.11.2012 19:45 6,7 C 97 % 1001 hPa 0,6 l/m 24,0 km/h (4 Bft) SW45 215 0 min 15 min 6,3 C -2,3 C
26.11.2012 20:01 6,6 C 97 % 1001 hPa 0,0 l/m 32,9 km/h (5 Bft) SW67.5 230 0 min 0 min 6,2 C -4,8 C
26.11.2012 20:16 6,3 C 96 % 1002 hPa 0,0 l/m 32,1 km/h (5 Bft) W-SW45 255 0 min 0 min 5,7 C -5,0 C
26.11.2012 20:31 5,7 C 95 % 1002 hPa 0,0 l/m 29,5 km/h (5 Bft) SW22.5 220 0 min 0 min 5,0 C -5,3 C
26.11.2012 20:45 5,2 C 95 % 1002 hPa 0,0 l/m 27,3 km/h (4 Bft) SW45 235 0 min 0 min 4,5 C -5,4 C
26.11.2012 21:00 4,7 C 95 % 1002 hPa 0,0 l/m 24,6 km/h (4 Bft) SW45 225 0 min 0 min 4,0 C -5,2 C
26.11.2012 21:15 4,6 C 95 % 1002 hPa 0,0 l/m 26,6 km/h (4 Bft) SW45 225 0 min 0 min 3,9 C -6,0 C
26.11.2012 21:31 4,4 C 95 % 1002 hPa 0,0 l/m 30,8 km/h (5 Bft) SW45 235 0 min 0 min 3,7 C -7,4 C
26.11.2012 21:46 4,2 C 95 % 1002 hPa 0,0 l/m 28,9 km/h (5 Bft) W-SW45 250 0 min 0 min 3,5 C -7,2 C
26.11.2012 22:00 4,1 C 95 % 1002 hPa 0,0 l/m 26,1 km/h (4 Bft) W-SW45 245 0 min 0 min 3,4 C -6,5 C
26.11.2012 22:15 4,0 C 95 % 1002 hPa 0,0 l/m 20,7 km/h (4 Bft) SW45 230 0 min 0 min 3,3 C -4,7 C
26.11.2012 22:30 4,1 C 95 % 1002 hPa 0,0 l/m 28,5 km/h (4 Bft) SW45 225 0 min 0 min 3,4 C -7,2 C
26.11.2012 22:45 4,1 C 95 % 1002 hPa 0,0 l/m 30,2 km/h (5 Bft) SW45 220 0 min 0 min 3,4 C -7,7 C
26.11.2012 23:01 4,0 C 95 % 1002 hPa 0,0 l/m 28,5 km/h (4 Bft) S-SW22.5 205 0 min 0 min 3,3 C -7,4 C
26.11.2012 23:16 4,1 C 95 % 1002 hPa 0,0 l/m 32,6 km/h (5 Bft) SW45 215 0 min 0 min 3,4 C -8,3 C
26.11.2012 23:30 4,1 C 95 % 1002 hPa 0,0 l/m 28,8 km/h (4 Bft) SW45 215 0 min 0 min 3,4 C -7,3 C
26.11.2012 23:45 4,1 C 95 % 1002 hPa 0,0 l/m 30,5 km/h (5 Bft) SW45 220 0 min 0 min 3,4 C -7,8 C
26.11.2012 23:54 4,1 C 95 % 1002 hPa 0,0 l/m 29,5 km/h (5 Bft) S-SW45 205 0 min 0 min 3,4 C -7,5 C
_ Min-Zeit 03:24 00:09 17:45 - 01:09 - - - - 02:24 23:16
Minimum _ -0,8 C 94 % 1001 hPa - 0,0 km/h (0 Bft) - - - - -1,4 C -8,3 C
_ Max-Zeit 13:30 10:16 00:09 19:15 18:46 - - 00:09 09:46 13:15 08:46
Maximum _ 7,2 C 99 % 1011 hPa 1,2 l/m 37,6 km/h
S-SW (5 Bft)
- - 0 min 16 min 7,0 C 4,1 C
Durchschnitt _ 4,4 C 97 % 1005 hPa #4,8 l/m 16,6 km/h (3 Bft) S - #0 min. #2:43 h 3,9 C -1,8 C